CPU weather

Calaveras Co Maury Rasmussen Field
San Andreas, California, United States

Public forecast

Using degrees Fahrenheit for public forecast. Weather courtesy of forecast.io.

Closest aviation weather report (METAR) to Calaveras Co Maury Rasmussen Field

Closest report is Columbia Airport, 13.0 nm (24.1 km) ESE. Retrieved UTC (0 seconds ago):

Closest aviation forecast (TAF) to Calaveras Co Maury Rasmussen Field

Closest forecast is Stockton Metropolitan Airport, 31.7 nm (58.8 km) WSW. Retrieved 2020/08/06 12:30 UTC (3 hours ago):

TAF KSCK 061128Z 0612/0712 28007KT P6SM SKC FM062300 27012KT P6SM SKC FM070600 29006KT P6SM SKC